sensor_id;sensor_type;location;lat;lon;timestamp;P1;durP1;ratioP1;P2;durP2;ratioP2
21091;SDS011;10704;42.678;23.288;2022-10-31T00:02:23;10.32;;;3.80;;
21091;SDS011;10704;42.678;23.288;2022-10-31T00:04:48;9.52;;;3.05;;
21091;SDS011;10704;42.678;23.288;2022-10-31T00:07:14;7.22;;;3.60;;
21091;SDS011;10704;42.678;23.288;2022-10-31T00:09:40;6.88;;;3.28;;
21091;SDS011;10704;42.678;23.288;2022-10-31T00:12:06;6.05;;;3.10;;
21091;SDS011;10704;42.678;23.288;2022-10-31T00:14:32;7.68;;;2.90;;
21091;SDS011;10704;42.678;23.288;2022-10-31T00:16:58;8.30;;;3.60;;
21091;SDS011;10704;42.678;23.288;2022-10-31T00:19:24;7.30;;;3.58;;
21091;SDS011;10704;42.678;23.288;2022-10-31T00:21:51;7.45;;;3.67;;
21091;SDS011;10704;42.678;23.288;2022-10-31T00:24:17;10.07;;;4.80;;
21091;SDS011;10704;42.678;23.288;2022-10-31T00:26:42;8.82;;;3.58;;
21091;SDS011;10704;42.678;23.288;2022-10-31T00:29:09;7.68;;;3.70;;
21091;SDS011;10704;42.678;23.288;2022-10-31T00:31:35;8.98;;;3.40;;
21091;SDS011;10704;42.678;23.288;2022-10-31T00:34:01;10.65;;;3.58;;
21091;SDS011;10704;42.678;23.288;2022-10-31T00:36:28;13.27;;;4.03;;
21091;SDS011;10704;42.678;23.288;2022-10-31T00:38:54;9.45;;;3.05;;
21091;SDS011;10704;42.678;23.288;2022-10-31T00:41:20;11.50;;;3.80;;
21091;SDS011;10704;42.678;23.288;2022-10-31T00:43:46;9.23;;;4.07;;
21091;SDS011;10704;42.678;23.288;2022-10-31T00:46:12;10.38;;;3.38;;
21091;SDS011;10704;42.678;23.288;2022-10-31T00:48:39;7.35;;;3.55;;
21091;SDS011;10704;42.678;23.288;2022-10-31T00:51:06;7.97;;;3.00;;
21091;SDS011;10704;42.678;23.288;2022-10-31T00:53:32;7.50;;;2.80;;
21091;SDS011;10704;42.678;23.288;2022-10-31T00:55:58;11.35;;;3.70;;
21091;SDS011;10704;42.678;23.288;2022-10-31T00:58:24;11.20;;;3.17;;
21091;SDS011;10704;42.678;23.288;2022-10-31T01:00:51;9.02;;;2.90;;
21091;SDS011;10704;42.678;23.288;2022-10-31T01:03:27;10.15;;;3.53;;
21091;SDS011;10704;42.678;23.288;2022-10-31T01:05:59;10.18;;;3.20;;
21091;SDS011;10704;42.678;23.288;2022-10-31T01:08:27;9.65;;;3.25;;
21091;SDS011;10704;42.678;23.288;2022-10-31T01:13:25;6.25;;;3.40;;
21091;SDS011;10704;42.678;23.288;2022-10-31T01:15:55;10.90;;;2.90;;
21091;SDS011;10704;42.678;23.288;2022-10-31T01:18:24;8.82;;;3.33;;
21091;SDS011;10704;42.678;23.288;2022-10-31T01:21:04;8.50;;;3.72;;
21091;SDS011;10704;42.678;23.288;2022-10-31T01:23:31;5.75;;;2.97;;
21091;SDS011;10704;42.678;23.288;2022-10-31T01:26:01;10.60;;;3.70;;
21091;SDS011;10704;42.678;23.288;2022-10-31T01:28:27;6.55;;;3.33;;
21091;SDS011;10704;42.678;23.288;2022-10-31T01:30:53;9.40;;;3.53;;
21091;SDS011;10704;42.678;23.288;2022-10-31T01:33:19;7.25;;;3.53;;
21091;SDS011;10704;42.678;23.288;2022-10-31T01:35:45;10.75;;;4.03;;
21091;SDS011;10704;42.678;23.288;2022-10-31T01:38:11;9.40;;;3.97;;
21091;SDS011;10704;42.678;23.288;2022-10-31T01:40:37;11.35;;;4.45;;
21091;SDS011;10704;42.678;23.288;2022-10-31T01:43:03;10.38;;;3.90;;
21091;SDS011;10704;42.678;23.288;2022-10-31T01:45:29;8.63;;;4.93;;
21091;SDS011;10704;42.678;23.288;2022-10-31T01:47:55;7.50;;;4.45;;
21091;SDS011;10704;42.678;23.288;2022-10-31T01:52:59;8.57;;;4.28;;
21091;SDS011;10704;42.678;23.288;2022-10-31T01:55:28;8.70;;;4.30;;
21091;SDS011;10704;42.678;23.288;2022-10-31T01:57:58;10.45;;;4.57;;
21091;SDS011;10704;42.678;23.288;2022-10-31T02:00:29;12.63;;;6.07;;
21091;SDS011;10704;42.678;23.288;2022-10-31T02:02:55;10.57;;;5.30;;
21091;SDS011;10704;42.678;23.288;2022-10-31T02:05:23;8.57;;;5.20;;
21091;SDS011;10704;42.678;23.288;2022-10-31T02:08:35;14.65;;;4.70;;
21091;SDS011;10704;42.678;23.288;2022-10-31T02:10:50;8.25;;;5.15;;
21091;SDS011;10704;42.678;23.288;2022-10-31T02:13:17;15.40;;;6.03;;
21091;SDS011;10704;42.678;23.288;2022-10-31T02:15:48;11.93;;;5.93;;
21091;SDS011;10704;42.678;23.288;2022-10-31T02:18:17;13.43;;;6.13;;
21091;SDS011;10704;42.678;23.288;2022-10-31T02:31:53;11.15;;;5.70;;
21091;SDS011;10704;42.678;23.288;2022-10-31T02:40:30;11.70;;;5.78;;
21091;SDS011;10704;42.678;23.288;2022-10-31T02:46:18;13.18;;;5.53;;
21091;SDS011;10704;42.678;23.288;2022-10-31T02:48:50;14.20;;;6.15;;
21091;SDS011;10704;42.678;23.288;2022-10-31T02:51:19;13.45;;;5.85;;
21091;SDS011;10704;42.678;23.288;2022-10-31T02:53:46;10.75;;;6.50;;
21091;SDS011;10704;42.678;23.288;2022-10-31T02:56:16;13.07;;;5.78;;
21091;SDS011;10704;42.678;23.288;2022-10-31T02:58:49;12.27;;;6.45;;
21091;SDS011;10704;42.678;23.288;2022-10-31T03:10:47;12.07;;;6.13;;
21091;SDS011;10704;42.678;23.288;2022-10-31T03:16:07;11.60;;;6.57;;
21091;SDS011;10704;42.678;23.288;2022-10-31T03:23:59;11.68;;;5.85;;
21091;SDS011;10704;42.678;23.288;2022-10-31T03:26:26;13.50;;;6.40;;
21091;SDS011;10704;42.678;23.288;2022-10-31T03:28:59;11.50;;;5.78;;
21091;SDS011;10704;42.678;23.288;2022-10-31T03:31:29;10.63;;;5.70;;
21091;SDS011;10704;42.678;23.288;2022-10-31T03:34:01;12.15;;;6.25;;
21091;SDS011;10704;42.678;23.288;2022-10-31T03:36:32;11.32;;;5.97;;
21091;SDS011;10704;42.678;23.288;2022-10-31T03:39:01;13.32;;;6.18;;
21091;SDS011;10704;42.678;23.288;2022-10-31T03:41:31;12.90;;;5.78;;
21091;SDS011;10704;42.678;23.288;2022-10-31T03:44:03;11.05;;;6.50;;
21091;SDS011;10704;42.678;23.288;2022-10-31T03:46:37;11.93;;;5.75;;
21091;SDS011;10704;42.678;23.288;2022-10-31T03:49:03;11.57;;;6.50;;
21091;SDS011;10704;42.678;23.288;2022-10-31T03:54:07;14.00;;;6.25;;
21091;SDS011;10704;42.678;23.288;2022-10-31T03:56:46;14.85;;;6.68;;
21091;SDS011;10704;42.678;23.288;2022-10-31T04:01:57;11.65;;;6.45;;
21091;SDS011;10704;42.678;23.288;2022-10-31T04:04:28;14.93;;;6.68;;
21091;SDS011;10704;42.678;23.288;2022-10-31T04:06:55;11.40;;;5.82;;
21091;SDS011;10704;42.678;23.288;2022-10-31T04:09:24;14.38;;;7.43;;
21091;SDS011;10704;42.678;23.288;2022-10-31T04:11:53;15.93;;;6.60;;
21091;SDS011;10704;42.678;23.288;2022-10-31T04:14:41;14.25;;;6.97;;
21091;SDS011;10704;42.678;23.288;2022-10-31T04:17:12;15.50;;;6.88;;
21091;SDS011;10704;42.678;23.288;2022-10-31T04:19:41;12.57;;;7.35;;
21091;SDS011;10704;42.678;23.288;2022-10-31T04:22:07;12.90;;;7.55;;
21091;SDS011;10704;42.678;23.288;2022-10-31T04:24:33;12.38;;;7.55;;
21091;SDS011;10704;42.678;23.288;2022-10-31T04:26:59;14.75;;;7.75;;
21091;SDS011;10704;42.678;23.288;2022-10-31T04:29:27;11.95;;;7.78;;
21091;SDS011;10704;42.678;23.288;2022-10-31T04:31:52;15.82;;;7.70;;
21091;SDS011;10704;42.678;23.288;2022-10-31T04:34:18;17.67;;;7.53;;
21091;SDS011;10704;42.678;23.288;2022-10-31T04:36:44;11.07;;;6.85;;
21091;SDS011;10704;42.678;23.288;2022-10-31T04:39:13;16.38;;;8.50;;
21091;SDS011;10704;42.678;23.288;2022-10-31T04:41:46;12.50;;;7.30;;
21091;SDS011;10704;42.678;23.288;2022-10-31T04:44:13;16.95;;;8.98;;
21091;SDS011;10704;42.678;23.288;2022-10-31T04:46:39;16.13;;;8.82;;
21091;SDS011;10704;42.678;23.288;2022-10-31T04:49:06;17.95;;;9.95;;
21091;SDS011;10704;42.678;23.288;2022-10-31T04:51:33;18.23;;;10.05;;
21091;SDS011;10704;42.678;23.288;2022-10-31T04:53:59;18.58;;;9.63;;
21091;SDS011;10704;42.678;23.288;2022-10-31T04:56:48;18.02;;;9.88;;
21091;SDS011;10704;42.678;23.288;2022-10-31T04:59:19;19.60;;;10.45;;
21091;SDS011;10704;42.678;23.288;2022-10-31T05:01:51;18.52;;;9.32;;
21091;SDS011;10704;42.678;23.288;2022-10-31T05:04:23;18.10;;;9.73;;
21091;SDS011;10704;42.678;23.288;2022-10-31T05:06:50;16.02;;;9.00;;
21091;SDS011;10704;42.678;23.288;2022-10-31T05:09:16;20.85;;;10.45;;
21091;SDS011;10704;42.678;23.288;2022-10-31T05:11:42;17.30;;;10.05;;
21091;SDS011;10704;42.678;23.288;2022-10-31T05:14:21;16.83;;;10.02;;
21091;SDS011;10704;42.678;23.288;2022-10-31T05:17:06;22.40;;;11.13;;
21091;SDS011;10704;42.678;23.288;2022-10-31T05:19:57;23.70;;;10.93;;
21091;SDS011;10704;42.678;23.288;2022-10-31T05:23:00;23.30;;;10.93;;
21091;SDS011;10704;42.678;23.288;2022-10-31T05:25:27;22.73;;;10.70;;
21091;SDS011;10704;42.678;23.288;2022-10-31T05:27:54;20.83;;;11.60;;
21091;SDS011;10704;42.678;23.288;2022-10-31T05:30:21;30.83;;;12.50;;
21091;SDS011;10704;42.678;23.288;2022-10-31T05:32:50;25.10;;;11.65;;
21091;SDS011;10704;42.678;23.288;2022-10-31T05:35:34;27.92;;;13.18;;
21091;SDS011;10704;42.678;23.288;2022-10-31T05:38:25;19.35;;;12.30;;
21091;SDS011;10704;42.678;23.288;2022-10-31T05:40:55;32.00;;;12.50;;
21091;SDS011;10704;42.678;23.288;2022-10-31T05:43:29;20.23;;;11.00;;
21091;SDS011;10704;42.678;23.288;2022-10-31T05:45:55;24.17;;;11.98;;
21091;SDS011;10704;42.678;23.288;2022-10-31T05:48:44;19.15;;;10.05;;
21091;SDS011;10704;42.678;23.288;2022-10-31T05:51:29;24.13;;;12.02;;
21091;SDS011;10704;42.678;23.288;2022-10-31T05:53:55;26.52;;;11.77;;
21091;SDS011;10704;42.678;23.288;2022-10-31T05:56:21;17.55;;;11.05;;
21091;SDS011;10704;42.678;23.288;2022-10-31T05:58:48;17.55;;;10.70;;
21091;SDS011;10704;42.678;23.288;2022-10-31T06:01:15;25.52;;;12.15;;
21091;SDS011;10704;42.678;23.288;2022-10-31T06:03:43;22.73;;;12.65;;
21091;SDS011;10704;42.678;23.288;2022-10-31T06:06:09;23.67;;;12.68;;
21091;SDS011;10704;42.678;23.288;2022-10-31T06:08:38;22.80;;;11.77;;
21091;SDS011;10704;42.678;23.288;2022-10-31T06:11:11;19.38;;;13.20;;
21091;SDS011;10704;42.678;23.288;2022-10-31T06:13:56;20.00;;;11.80;;
21091;SDS011;10704;42.678;23.288;2022-10-31T06:16:28;20.17;;;11.98;;
21091;SDS011;10704;42.678;23.288;2022-10-31T06:18:59;21.55;;;11.98;;
21091;SDS011;10704;42.678;23.288;2022-10-31T06:21:25;26.58;;;12.02;;
21091;SDS011;10704;42.678;23.288;2022-10-31T06:23:52;18.35;;;12.02;;
21091;SDS011;10704;42.678;23.288;2022-10-31T06:26:44;19.65;;;12.35;;
21091;SDS011;10704;42.678;23.288;2022-10-31T06:29:10;25.10;;;13.23;;
21091;SDS011;10704;42.678;23.288;2022-10-31T06:31:56;23.20;;;12.75;;
21091;SDS011;10704;42.678;23.288;2022-10-31T06:34:22;22.30;;;12.05;;
21091;SDS011;10704;42.678;23.288;2022-10-31T06:36:48;20.17;;;12.50;;
21091;SDS011;10704;42.678;23.288;2022-10-31T06:39:16;21.88;;;12.55;;
21091;SDS011;10704;42.678;23.288;2022-10-31T06:41:42;22.55;;;12.52;;
21091;SDS011;10704;42.678;23.288;2022-10-31T06:44:09;22.17;;;13.18;;
21091;SDS011;10704;42.678;23.288;2022-10-31T06:46:53;23.15;;;13.15;;
21091;SDS011;10704;42.678;23.288;2022-10-31T06:49:50;21.42;;;13.13;;
21091;SDS011;10704;42.678;23.288;2022-10-31T06:52:20;28.40;;;13.10;;
21091;SDS011;10704;42.678;23.288;2022-10-31T06:54:49;27.65;;;13.40;;
21091;SDS011;10704;42.678;23.288;2022-10-31T06:57:15;24.88;;;13.45;;
21091;SDS011;10704;42.678;23.288;2022-10-31T06:59:42;22.23;;;12.75;;
21091;SDS011;10704;42.678;23.288;2022-10-31T07:02:16;23.92;;;13.05;;
21091;SDS011;10704;42.678;23.288;2022-10-31T07:04:42;26.38;;;13.93;;
21091;SDS011;10704;42.678;23.288;2022-10-31T07:07:11;24.55;;;14.10;;
21091;SDS011;10704;42.678;23.288;2022-10-31T07:09:38;26.88;;;13.48;;
21091;SDS011;10704;42.678;23.288;2022-10-31T07:12:04;33.28;;;14.43;;
21091;SDS011;10704;42.678;23.288;2022-10-31T07:14:35;21.10;;;13.88;;
21091;SDS011;10704;42.678;23.288;2022-10-31T07:17:01;30.02;;;14.65;;
21091;SDS011;10704;42.678;23.288;2022-10-31T07:19:33;31.83;;;15.05;;
21091;SDS011;10704;42.678;23.288;2022-10-31T07:21:59;30.70;;;14.75;;
21091;SDS011;10704;42.678;23.288;2022-10-31T07:24:27;27.15;;;14.68;;
21091;SDS011;10704;42.678;23.288;2022-10-31T07:27:11;24.52;;;15.02;;
21091;SDS011;10704;42.678;23.288;2022-10-31T07:29:38;22.70;;;14.80;;
21091;SDS011;10704;42.678;23.288;2022-10-31T07:32:04;25.45;;;15.00;;
21091;SDS011;10704;42.678;23.288;2022-10-31T07:34:32;29.08;;;15.70;;
21091;SDS011;10704;42.678;23.288;2022-10-31T07:37:16;23.15;;;14.63;;
21091;SDS011;10704;42.678;23.288;2022-10-31T07:39:42;27.90;;;15.55;;
21091;SDS011;10704;42.678;23.288;2022-10-31T07:42:08;25.88;;;15.38;;
21091;SDS011;10704;42.678;23.288;2022-10-31T07:44:35;29.38;;;15.70;;
21091;SDS011;10704;42.678;23.288;2022-10-31T07:47:29;29.13;;;17.10;;
21091;SDS011;10704;42.678;23.288;2022-10-31T07:50:22;30.80;;;15.13;;
21091;SDS011;10704;42.678;23.288;2022-10-31T07:53:16;21.63;;;14.27;;
21091;SDS011;10704;42.678;23.288;2022-10-31T07:55:51;27.17;;;14.52;;
21091;SDS011;10704;42.678;23.288;2022-10-31T07:58:18;27.55;;;15.25;;
21091;SDS011;10704;42.678;23.288;2022-10-31T08:00:45;31.08;;;16.05;;
21091;SDS011;10704;42.678;23.288;2022-10-31T08:03:16;27.45;;;15.48;;
21091;SDS011;10704;42.678;23.288;2022-10-31T08:06:02;29.05;;;15.05;;
21091;SDS011;10704;42.678;23.288;2022-10-31T08:08:48;23.77;;;15.30;;
21091;SDS011;10704;42.678;23.288;2022-10-31T08:11:16;23.98;;;14.70;;
21091;SDS011;10704;42.678;23.288;2022-10-31T08:13:41;24.27;;;14.25;;
21091;SDS011;10704;42.678;23.288;2022-10-31T08:16:09;21.75;;;14.38;;
21091;SDS011;10704;42.678;23.288;2022-10-31T08:18:42;23.50;;;14.73;;
21091;SDS011;10704;42.678;23.288;2022-10-31T08:21:12;22.13;;;14.43;;
21091;SDS011;10704;42.678;23.288;2022-10-31T08:23:37;20.67;;;13.55;;
21091;SDS011;10704;42.678;23.288;2022-10-31T08:26:04;20.98;;;13.80;;
21091;SDS011;10704;42.678;23.288;2022-10-31T08:28:31;20.20;;;12.90;;
21091;SDS011;10704;42.678;23.288;2022-10-31T08:30:57;21.27;;;13.45;;
21091;SDS011;10704;42.678;23.288;2022-10-31T08:33:47;23.55;;;13.57;;
21091;SDS011;10704;42.678;23.288;2022-10-31T08:36:31;23.60;;;14.73;;
21091;SDS011;10704;42.678;23.288;2022-10-31T08:39:20;26.83;;;13.90;;
21091;SDS011;10704;42.678;23.288;2022-10-31T08:41:46;23.70;;;14.70;;
21091;SDS011;10704;42.678;23.288;2022-10-31T08:44:12;21.52;;;14.23;;
21091;SDS011;10704;42.678;23.288;2022-10-31T08:46:38;21.88;;;14.80;;
21091;SDS011;10704;42.678;23.288;2022-10-31T08:49:04;20.13;;;13.88;;
21091;SDS011;10704;42.678;23.288;2022-10-31T08:51:30;24.23;;;13.68;;
21091;SDS011;10704;42.678;23.288;2022-10-31T08:53:56;20.13;;;12.55;;
21091;SDS011;10704;42.678;23.288;2022-10-31T08:56:31;19.08;;;11.95;;
21091;SDS011;10704;42.678;23.288;2022-10-31T08:58:58;16.02;;;11.00;;
21091;SDS011;10704;42.678;23.288;2022-10-31T09:01:47;20.60;;;12.23;;
21091;SDS011;10704;42.678;23.288;2022-10-31T09:04:13;25.13;;;12.15;;
21091;SDS011;10704;42.678;23.288;2022-10-31T09:06:39;23.30;;;12.63;;
21091;SDS011;10704;42.678;23.288;2022-10-31T09:09:05;18.40;;;10.77;;
21091;SDS011;10704;42.678;23.288;2022-10-31T09:11:31;18.38;;;10.57;;
21091;SDS011;10704;42.678;23.288;2022-10-31T09:14:09;19.17;;;11.20;;
21091;SDS011;10704;42.678;23.288;2022-10-31T09:16:37;18.60;;;11.98;;
21091;SDS011;10704;42.678;23.288;2022-10-31T09:19:06;20.48;;;11.00;;
21091;SDS011;10704;42.678;23.288;2022-10-31T09:21:32;17.38;;;10.93;;
21091;SDS011;10704;42.678;23.288;2022-10-31T09:24:02;17.45;;;11.52;;
21091;SDS011;10704;42.678;23.288;2022-10-31T09:26:30;17.38;;;10.30;;
21091;SDS011;10704;42.678;23.288;2022-10-31T09:29:30;16.80;;;10.10;;
21091;SDS011;10704;42.678;23.288;2022-10-31T09:31:59;12.75;;;9.05;;
21091;SDS011;10704;42.678;23.288;2022-10-31T09:34:30;21.10;;;10.57;;
21091;SDS011;10704;42.678;23.288;2022-10-31T09:37:08;18.05;;;9.27;;
21091;SDS011;10704;42.678;23.288;2022-10-31T09:39:34;16.00;;;9.52;;
21091;SDS011;10704;42.678;23.288;2022-10-31T09:45:13;17.58;;;8.82;;
21091;SDS011;10704;42.678;23.288;2022-10-31T09:48:35;16.00;;;8.50;;
21091;SDS011;10704;42.678;23.288;2022-10-31T09:50:43;12.57;;;8.57;;
21091;SDS011;10704;42.678;23.288;2022-10-31T09:56:05;16.95;;;7.53;;
21091;SDS011;10704;42.678;23.288;2022-10-31T09:58:38;13.73;;;8.07;;
21091;SDS011;10704;42.678;23.288;2022-10-31T10:01:17;16.05;;;7.20;;
21091;SDS011;10704;42.678;23.288;2022-10-31T10:03:56;14.95;;;7.80;;
21091;SDS011;10704;42.678;23.288;2022-10-31T10:06:53;14.68;;;6.28;;
21091;SDS011;10704;42.678;23.288;2022-10-31T10:09:42;11.05;;;6.05;;
21091;SDS011;10704;42.678;23.288;2022-10-31T10:12:41;18.95;;;5.65;;
21091;SDS011;10704;42.678;23.288;2022-10-31T10:20:52;11.90;;;6.45;;
21091;SDS011;10704;42.678;23.288;2022-10-31T10:26:00;15.23;;;7.07;;
21091;SDS011;10704;42.678;23.288;2022-10-31T10:28:36;11.23;;;5.53;;
21091;SDS011;10704;42.678;23.288;2022-10-31T10:33:40;9.48;;;4.00;;
21091;SDS011;10704;42.678;23.288;2022-10-31T10:36:08;14.82;;;4.85;;
21091;SDS011;10704;42.678;23.288;2022-10-31T10:38:48;10.13;;;5.00;;
21091;SDS011;10704;42.678;23.288;2022-10-31T10:41:35;21.25;;;10.48;;
21091;SDS011;10704;42.678;23.288;2022-10-31T10:44:05;11.82;;;5.50;;
21091;SDS011;10704;42.678;23.288;2022-10-31T10:59:39;11.93;;;4.38;;
21091;SDS011;10704;42.678;23.288;2022-10-31T11:02:16;10.20;;;5.10;;
21091;SDS011;10704;42.678;23.288;2022-10-31T11:04:47;9.10;;;4.53;;
21091;SDS011;10704;42.678;23.288;2022-10-31T11:07:22;9.20;;;4.60;;
21091;SDS011;10704;42.678;23.288;2022-10-31T11:09:48;9.82;;;4.30;;
21091;SDS011;10704;42.678;23.288;2022-10-31T11:12:21;12.70;;;4.85;;
21091;SDS011;10704;42.678;23.288;2022-10-31T11:14:53;9.82;;;4.38;;
21091;SDS011;10704;42.678;23.288;2022-10-31T11:17:35;9.63;;;5.28;;
21091;SDS011;10704;42.678;23.288;2022-10-31T11:20:05;11.57;;;4.38;;
21091;SDS011;10704;42.678;23.288;2022-10-31T11:22:38;13.25;;;5.15;;
21091;SDS011;10704;42.678;23.288;2022-10-31T11:25:24;9.45;;;5.10;;
21091;SDS011;10704;42.678;23.288;2022-10-31T11:28:01;12.13;;;5.03;;
21091;SDS011;10704;42.678;23.288;2022-10-31T11:30:44;10.50;;;4.95;;
21091;SDS011;10704;42.678;23.288;2022-10-31T11:33:24;6.93;;;3.88;;
21091;SDS011;10704;42.678;23.288;2022-10-31T11:36:00;11.80;;;4.95;;
21091;SDS011;10704;42.678;23.288;2022-10-31T11:38:39;8.18;;;3.83;;
21091;SDS011;10704;42.678;23.288;2022-10-31T11:46:45;16.33;;;6.07;;
21091;SDS011;10704;42.678;23.288;2022-10-31T11:49:34;17.25;;;6.32;;
21091;SDS011;10704;42.678;23.288;2022-10-31T11:52:02;11.98;;;6.03;;
21091;SDS011;10704;42.678;23.288;2022-10-31T11:54:48;11.85;;;5.38;;
21091;SDS011;10704;42.678;23.288;2022-10-31T11:57:25;17.33;;;6.38;;
21091;SDS011;10704;42.678;23.288;2022-10-31T11:59:57;15.23;;;5.28;;
21091;SDS011;10704;42.678;23.288;2022-10-31T12:02:37;12.65;;;5.28;;
21091;SDS011;10704;42.678;23.288;2022-10-31T12:05:08;12.65;;;5.05;;
21091;SDS011;10704;42.678;23.288;2022-10-31T12:07:43;12.13;;;5.20;;
21091;SDS011;10704;42.678;23.288;2022-10-31T12:10:10;13.82;;;4.32;;
21091;SDS011;10704;42.678;23.288;2022-10-31T12:15:34;12.00;;;4.45;;
21091;SDS011;10704;42.678;23.288;2022-10-31T12:28:56;11.90;;;4.50;;
21091;SDS011;10704;42.678;23.288;2022-10-31T12:36:59;10.32;;;4.13;;
21091;SDS011;10704;42.678;23.288;2022-10-31T12:58:56;7.78;;;3.95;;
21091;SDS011;10704;42.678;23.288;2022-10-31T13:04:15;13.02;;;4.40;;
21091;SDS011;10704;42.678;23.288;2022-10-31T13:07:00;13.95;;;4.57;;
21091;SDS011;10704;42.678;23.288;2022-10-31T13:09:32;10.20;;;4.70;;
21091;SDS011;10704;42.678;23.288;2022-10-31T13:12:03;10.75;;;4.32;;
21091;SDS011;10704;42.678;23.288;2022-10-31T13:14:44;10.05;;;4.30;;
21091;SDS011;10704;42.678;23.288;2022-10-31T13:17:15;8.10;;;3.85;;
21091;SDS011;10704;42.678;23.288;2022-10-31T13:19:47;12.80;;;4.85;;
21091;SDS011;10704;42.678;23.288;2022-10-31T13:22:25;10.75;;;4.35;;
21091;SDS011;10704;42.678;23.288;2022-10-31T13:24:58;8.52;;;4.20;;
21091;SDS011;10704;42.678;23.288;2022-10-31T13:30:32;12.35;;;4.93;;
21091;SDS011;10704;42.678;23.288;2022-10-31T13:38:17;9.25;;;4.15;;
21091;SDS011;10704;42.678;23.288;2022-10-31T13:44:17;7.70;;;4.30;;
21091;SDS011;10704;42.678;23.288;2022-10-31T13:46:24;8.40;;;3.83;;
21091;SDS011;10704;42.678;23.288;2022-10-31T13:49:00;12.23;;;4.53;;
21091;SDS011;10704;42.678;23.288;2022-10-31T13:51:27;11.77;;;4.80;;
21091;SDS011;10704;42.678;23.288;2022-10-31T13:54:33;9.48;;;4.32;;
21091;SDS011;10704;42.678;23.288;2022-10-31T13:56:59;11.23;;;4.45;;
21091;SDS011;10704;42.678;23.288;2022-10-31T13:59:25;11.02;;;3.80;;
21091;SDS011;10704;42.678;23.288;2022-10-31T14:01:58;8.82;;;3.72;;
21091;SDS011;10704;42.678;23.288;2022-10-31T14:06:55;12.85;;;3.90;;
21091;SDS011;10704;42.678;23.288;2022-10-31T14:09:24;10.95;;;4.47;;
21091;SDS011;10704;42.678;23.288;2022-10-31T14:11:57;16.15;;;4.20;;
21091;SDS011;10704;42.678;23.288;2022-10-31T14:14:28;9.02;;;3.78;;
21091;SDS011;10704;42.678;23.288;2022-10-31T14:16:58;15.80;;;4.70;;
21091;SDS011;10704;42.678;23.288;2022-10-31T14:19:25;12.63;;;4.05;;
21091;SDS011;10704;42.678;23.288;2022-10-31T14:21:52;12.80;;;4.03;;
21091;SDS011;10704;42.678;23.288;2022-10-31T14:26:57;16.85;;;6.72;;
21091;SDS011;10704;42.678;23.288;2022-10-31T14:29:31;10.55;;;4.25;;
21091;SDS011;10704;42.678;23.288;2022-10-31T14:34:41;17.88;;;4.68;;
21091;SDS011;10704;42.678;23.288;2022-10-31T14:46:35;15.07;;;4.80;;
21091;SDS011;10704;42.678;23.288;2022-10-31T14:51:51;13.05;;;4.50;;
21091;SDS011;10704;42.678;23.288;2022-10-31T14:54:39;9.98;;;4.65;;
21091;SDS011;10704;42.678;23.288;2022-10-31T14:59:50;13.27;;;4.82;;
21091;SDS011;10704;42.678;23.288;2022-10-31T15:02:21;15.02;;;5.15;;
21091;SDS011;10704;42.678;23.288;2022-10-31T15:04:48;17.35;;;5.70;;
21091;SDS011;10704;42.678;23.288;2022-10-31T15:09:43;25.92;;;6.55;;
21091;SDS011;10704;42.678;23.288;2022-10-31T15:12:21;24.20;;;7.40;;
21091;SDS011;10704;42.678;23.288;2022-10-31T15:14:51;19.08;;;6.68;;
21091;SDS011;10704;42.678;23.288;2022-10-31T15:17:17;19.88;;;7.78;;
21091;SDS011;10704;42.678;23.288;2022-10-31T15:19:44;17.17;;;6.80;;
21091;SDS011;10704;42.678;23.288;2022-10-31T15:22:13;21.38;;;6.18;;
21091;SDS011;10704;42.678;23.288;2022-10-31T15:24:42;22.63;;;6.53;;
21091;SDS011;10704;42.678;23.288;2022-10-31T15:27:15;21.02;;;6.53;;
21091;SDS011;10704;42.678;23.288;2022-10-31T15:29:52;21.88;;;6.07;;
21091;SDS011;10704;42.678;23.288;2022-10-31T15:32:24;19.95;;;6.95;;
21091;SDS011;10704;42.678;23.288;2022-10-31T15:34:54;21.75;;;6.38;;
21091;SDS011;10704;42.678;23.288;2022-10-31T15:37:22;22.65;;;7.13;;
21091;SDS011;10704;42.678;23.288;2022-10-31T15:39:50;22.77;;;7.38;;
21091;SDS011;10704;42.678;23.288;2022-10-31T15:42:21;15.98;;;7.68;;
21091;SDS011;10704;42.678;23.288;2022-10-31T15:47:45;27.33;;;8.75;;
21091;SDS011;10704;42.678;23.288;2022-10-31T15:50:19;24.20;;;8.55;;
21091;SDS011;10704;42.678;23.288;2022-10-31T15:52:51;33.20;;;9.98;;
21091;SDS011;10704;42.678;23.288;2022-10-31T15:57:48;33.63;;;10.18;;
21091;SDS011;10704;42.678;23.288;2022-10-31T16:00:27;25.60;;;9.13;;
21091;SDS011;10704;42.678;23.288;2022-10-31T16:05:49;26.27;;;7.05;;
21091;SDS011;10704;42.678;23.288;2022-10-31T16:10:52;19.92;;;7.63;;
21091;SDS011;10704;42.678;23.288;2022-10-31T16:13:20;33.47;;;8.43;;
21091;SDS011;10704;42.678;23.288;2022-10-31T16:16:03;30.83;;;7.65;;
21091;SDS011;10704;42.678;23.288;2022-10-31T16:18:37;19.17;;;6.45;;
21091;SDS011;10704;42.678;23.288;2022-10-31T16:21:06;22.40;;;6.97;;
21091;SDS011;10704;42.678;23.288;2022-10-31T16:23:33;27.90;;;8.32;;
21091;SDS011;10704;42.678;23.288;2022-10-31T16:26:06;26.08;;;8.88;;
21091;SDS011;10704;42.678;23.288;2022-10-31T16:28:33;30.92;;;10.32;;
21091;SDS011;10704;42.678;23.288;2022-10-31T16:31:00;30.30;;;11.48;;
21091;SDS011;10704;42.678;23.288;2022-10-31T16:33:33;24.02;;;9.50;;
21091;SDS011;10704;42.678;23.288;2022-10-31T16:36:43;29.00;;;10.00;;
21091;SDS011;10704;42.678;23.288;2022-10-31T16:38:54;38.75;;;13.35;;
21091;SDS011;10704;42.678;23.288;2022-10-31T16:41:20;43.28;;;17.55;;
21091;SDS011;10704;42.678;23.288;2022-10-31T16:43:47;39.00;;;16.85;;
21091;SDS011;10704;42.678;23.288;2022-10-31T16:46:14;41.00;;;15.43;;
21091;SDS011;10704;42.678;23.288;2022-10-31T16:48:43;92.78;;;46.28;;
21091;SDS011;10704;42.678;23.288;2022-10-31T16:51:09;74.50;;;37.38;;
21091;SDS011;10704;42.678;23.288;2022-10-31T16:53:35;54.05;;;26.67;;
21091;SDS011;10704;42.678;23.288;2022-10-31T16:56:02;36.67;;;20.65;;
21091;SDS011;10704;42.678;23.288;2022-10-31T16:58:30;57.13;;;28.13;;
21091;SDS011;10704;42.678;23.288;2022-10-31T17:00:58;37.50;;;17.67;;
21091;SDS011;10704;42.678;23.288;2022-10-31T17:03:26;34.00;;;16.30;;
21091;SDS011;10704;42.678;23.288;2022-10-31T17:05:52;34.08;;;13.18;;
21091;SDS011;10704;42.678;23.288;2022-10-31T17:08:20;28.63;;;12.63;;
21091;SDS011;10704;42.678;23.288;2022-10-31T17:10:46;45.33;;;17.42;;
21091;SDS011;10704;42.678;23.288;2022-10-31T17:13:19;32.85;;;12.85;;
21091;SDS011;10704;42.678;23.288;2022-10-31T17:15:52;41.08;;;16.23;;
21091;SDS011;10704;42.678;23.288;2022-10-31T17:18:19;52.42;;;21.63;;
21091;SDS011;10704;42.678;23.288;2022-10-31T17:20:46;32.90;;;15.70;;
21091;SDS011;10704;42.678;23.288;2022-10-31T17:23:13;40.80;;;19.45;;
21091;SDS011;10704;42.678;23.288;2022-10-31T17:25:41;35.83;;;14.32;;
21091;SDS011;10704;42.678;23.288;2022-10-31T17:28:12;34.90;;;13.30;;
21091;SDS011;10704;42.678;23.288;2022-10-31T17:30:39;31.88;;;13.25;;
21091;SDS011;10704;42.678;23.288;2022-10-31T17:33:06;41.78;;;16.38;;
21091;SDS011;10704;42.678;23.288;2022-10-31T17:35:35;31.83;;;15.65;;
21091;SDS011;10704;42.678;23.288;2022-10-31T17:38:01;42.75;;;17.75;;